sensor_id;sensor_type;location;lat;lon;timestamp;temperature;humidity
3942;DHT22;1985;48.592;8.850;2023-09-18T00:00:49;20.90;99.90
3942;DHT22;1985;48.592;8.850;2023-09-18T00:03:21;20.90;99.90
3942;DHT22;1985;48.592;8.850;2023-09-18T00:05:50;20.90;99.90
3942;DHT22;1985;48.592;8.850;2023-09-18T00:08:17;20.90;99.90
3942;DHT22;1985;48.592;8.850;2023-09-18T00:10:46;20.90;99.90
3942;DHT22;1985;48.592;8.850;2023-09-18T00:13:12;20.80;99.90
3942;DHT22;1985;48.592;8.850;2023-09-18T00:15:38;20.80;99.90
3942;DHT22;1985;48.592;8.850;2023-09-18T00:18:06;20.80;99.90
3942;DHT22;1985;48.592;8.850;2023-09-18T00:20:32;20.70;99.90
3942;DHT22;1985;48.592;8.850;2023-09-18T00:22:57;20.70;99.90
3942;DHT22;1985;48.592;8.850;2023-09-18T00:25:23;20.60;99.90
3942;DHT22;1985;48.592;8.850;2023-09-18T00:27:49;20.60;99.90
3942;DHT22;1985;48.592;8.850;2023-09-18T00:30:14;20.60;99.90
3942;DHT22;1985;48.592;8.850;2023-09-18T00:32:40;20.60;99.90
3942;DHT22;1985;48.592;8.850;2023-09-18T00:35:06;20.50;99.90
3942;DHT22;1985;48.592;8.850;2023-09-18T00:37:32;20.70;99.90
3942;DHT22;1985;48.592;8.850;2023-09-18T00:39:57;20.60;99.90
3942;DHT22;1985;48.592;8.850;2023-09-18T00:42:24;20.70;99.90
3942;DHT22;1985;48.592;8.850;2023-09-18T00:44:49;20.80;99.90
3942;DHT22;1985;48.592;8.850;2023-09-18T00:47:16;20.80;99.90
3942;DHT22;1985;48.592;8.850;2023-09-18T00:49:46;20.80;99.90
3942;DHT22;1985;48.592;8.850;2023-09-18T00:52:12;20.90;99.90
3942;DHT22;1985;48.592;8.850;2023-09-18T00:54:39;20.90;99.90
3942;DHT22;1985;48.592;8.850;2023-09-18T00:57:05;20.80;99.90
3942;DHT22;1985;48.592;8.850;2023-09-18T00:59:31;20.80;99.90
3942;DHT22;1985;48.592;8.850;2023-09-18T01:01:58;20.70;99.90
3942;DHT22;1985;48.592;8.850;2023-09-18T01:04:25;20.70;99.90
3942;DHT22;1985;48.592;8.850;2023-09-18T01:06:52;20.70;99.90
3942;DHT22;1985;48.592;8.850;2023-09-18T01:09:18;20.80;99.90
3942;DHT22;1985;48.592;8.850;2023-09-18T01:11:52;20.80;99.90
3942;DHT22;1985;48.592;8.850;2023-09-18T01:19:42;20.40;99.90
3942;DHT22;1985;48.592;8.850;2023-09-18T01:22:11;20.40;99.90
3942;DHT22;1985;48.592;8.850;2023-09-18T01:24:38;20.40;99.90
3942;DHT22;1985;48.592;8.850;2023-09-18T01:27:07;19.70;99.90
3942;DHT22;1985;48.592;8.850;2023-09-18T01:29:33;19.00;99.90
3942;DHT22;1985;48.592;8.850;2023-09-18T01:31:58;19.20;99.90
3942;DHT22;1985;48.592;8.850;2023-09-18T01:34:28;19.70;99.90
3942;DHT22;1985;48.592;8.850;2023-09-18T01:36:59;20.20;99.90
3942;DHT22;1985;48.592;8.850;2023-09-18T01:39:28;19.80;99.90
3942;DHT22;1985;48.592;8.850;2023-09-18T01:42:00;19.10;99.90
3942;DHT22;1985;48.592;8.850;2023-09-18T01:44:27;18.80;99.90
3942;DHT22;1985;48.592;8.850;2023-09-18T01:46:53;18.80;99.90
3942;DHT22;1985;48.592;8.850;2023-09-18T01:49:36;19.00;99.90
3942;DHT22;1985;48.592;8.850;2023-09-18T01:52:02;19.00;99.90
3942;DHT22;1985;48.592;8.850;2023-09-18T01:54:30;18.90;99.90
3942;DHT22;1985;48.592;8.850;2023-09-18T01:56:55;18.60;99.90
3942;DHT22;1985;48.592;8.850;2023-09-18T01:59:22;18.30;99.90
3942;DHT22;1985;48.592;8.850;2023-09-18T02:01:48;18.20;99.90
3942;DHT22;1985;48.592;8.850;2023-09-18T02:04:14;18.20;99.90
3942;DHT22;1985;48.592;8.850;2023-09-18T02:06:40;18.20;99.90
3942;DHT22;1985;48.592;8.850;2023-09-18T02:09:06;18.10;99.90
3942;DHT22;1985;48.592;8.850;2023-09-18T02:11:40;18.10;99.90
3942;DHT22;1985;48.592;8.850;2023-09-18T02:14:07;18.10;99.90
3942;DHT22;1985;48.592;8.850;2023-09-18T02:16:36;18.10;99.90
3942;DHT22;1985;48.592;8.850;2023-09-18T02:19:02;18.20;99.90
3942;DHT22;1985;48.592;8.850;2023-09-18T02:21:28;18.20;99.90
3942;DHT22;1985;48.592;8.850;2023-09-18T02:23:54;18.30;99.90
3942;DHT22;1985;48.592;8.850;2023-09-18T02:26:21;18.50;99.90
3942;DHT22;1985;48.592;8.850;2023-09-18T02:28:47;18.70;99.90
3942;DHT22;1985;48.592;8.850;2023-09-18T02:31:13;19.00;99.90
3942;DHT22;1985;48.592;8.850;2023-09-18T02:33:39;19.00;99.90
3942;DHT22;1985;48.592;8.850;2023-09-18T02:36:05;19.20;99.90
3942;DHT22;1985;48.592;8.850;2023-09-18T02:38:31;19.30;99.90
3942;DHT22;1985;48.592;8.850;2023-09-18T02:40:57;19.40;99.90
3942;DHT22;1985;48.592;8.850;2023-09-18T02:43:23;19.50;99.90
3942;DHT22;1985;48.592;8.850;2023-09-18T02:45:49;19.70;99.90
3942;DHT22;1985;48.592;8.850;2023-09-18T02:48:15;19.80;99.90
3942;DHT22;1985;48.592;8.850;2023-09-18T02:50:41;19.90;99.90
3942;DHT22;1985;48.592;8.850;2023-09-18T02:53:11;19.90;99.90
3942;DHT22;1985;48.592;8.850;2023-09-18T02:55:37;20.00;99.90
3942;DHT22;1985;48.592;8.850;2023-09-18T02:58:02;20.10;99.90
3942;DHT22;1985;48.592;8.850;2023-09-18T03:00:28;20.10;99.90
3942;DHT22;1985;48.592;8.850;2023-09-18T03:02:54;20.00;99.90
3942;DHT22;1985;48.592;8.850;2023-09-18T03:05:19;19.70;99.90
3942;DHT22;1985;48.592;8.850;2023-09-18T03:07:45;19.20;99.90
3942;DHT22;1985;48.592;8.850;2023-09-18T03:10:11;19.10;99.90
3942;DHT22;1985;48.592;8.850;2023-09-18T03:12:40;19.20;99.90
3942;DHT22;1985;48.592;8.850;2023-09-18T03:15:06;19.20;99.90
3942;DHT22;1985;48.592;8.850;2023-09-18T03:17:32;19.30;99.90
3942;DHT22;1985;48.592;8.850;2023-09-18T03:19:57;19.30;99.90
3942;DHT22;1985;48.592;8.850;2023-09-18T03:22:23;19.50;99.90
3942;DHT22;1985;48.592;8.850;2023-09-18T03:24:48;19.40;99.90
3942;DHT22;1985;48.592;8.850;2023-09-18T03:27:14;19.30;99.90
3942;DHT22;1985;48.592;8.850;2023-09-18T03:29:40;19.00;99.90
3942;DHT22;1985;48.592;8.850;2023-09-18T03:32:05;18.80;99.90
3942;DHT22;1985;48.592;8.850;2023-09-18T03:34:31;18.80;99.90
3942;DHT22;1985;48.592;8.850;2023-09-18T03:36:56;18.80;99.90
3942;DHT22;1985;48.592;8.850;2023-09-18T03:39:22;18.60;99.90
3942;DHT22;1985;48.592;8.850;2023-09-18T03:41:48;18.50;99.90
3942;DHT22;1985;48.592;8.850;2023-09-18T03:44:13;18.50;99.90
3942;DHT22;1985;48.592;8.850;2023-09-18T03:46:39;18.50;99.90
3942;DHT22;1985;48.592;8.850;2023-09-18T03:49:05;18.50;99.90
3942;DHT22;1985;48.592;8.850;2023-09-18T03:51:31;18.60;99.90
3942;DHT22;1985;48.592;8.850;2023-09-18T03:53:56;18.80;99.90
3942;DHT22;1985;48.592;8.850;2023-09-18T03:56:22;19.10;99.90
3942;DHT22;1985;48.592;8.850;2023-09-18T03:58:48;19.30;99.90
3942;DHT22;1985;48.592;8.850;2023-09-18T04:01:15;19.40;99.90
3942;DHT22;1985;48.592;8.850;2023-09-18T04:03:41;19.20;99.90
3942;DHT22;1985;48.592;8.850;2023-09-18T04:06:07;19.20;99.90
3942;DHT22;1985;48.592;8.850;2023-09-18T04:08:32;19.30;99.90
3942;DHT22;1985;48.592;8.850;2023-09-18T04:10:58;19.30;99.90
3942;DHT22;1985;48.592;8.850;2023-09-18T04:13:24;19.40;99.90
3942;DHT22;1985;48.592;8.850;2023-09-18T04:15:50;19.40;99.90
3942;DHT22;1985;48.592;8.850;2023-09-18T04:18:17;19.30;99.90
3942;DHT22;1985;48.592;8.850;2023-09-18T04:20:42;19.40;99.90
3942;DHT22;1985;48.592;8.850;2023-09-18T04:23:20;18.90;99.90
3942;DHT22;1985;48.592;8.850;2023-09-18T04:25:47;18.60;99.90
3942;DHT22;1985;48.592;8.850;2023-09-18T04:28:17;18.60;99.90
3942;DHT22;1985;48.592;8.850;2023-09-18T04:30:44;18.60;99.90
3942;DHT22;1985;48.592;8.850;2023-09-18T04:33:10;18.80;99.90
3942;DHT22;1985;48.592;8.850;2023-09-18T04:35:38;18.90;99.90
3942;DHT22;1985;48.592;8.850;2023-09-18T04:38:06;19.00;99.90
3942;DHT22;1985;48.592;8.850;2023-09-18T04:40:31;19.20;99.90
3942;DHT22;1985;48.592;8.850;2023-09-18T04:43:00;19.30;99.90
3942;DHT22;1985;48.592;8.850;2023-09-18T04:45:27;19.40;99.90
3942;DHT22;1985;48.592;8.850;2023-09-18T04:47:55;19.50;99.90
3942;DHT22;1985;48.592;8.850;2023-09-18T04:50:21;19.50;99.90
3942;DHT22;1985;48.592;8.850;2023-09-18T04:52:46;19.50;99.90
3942;DHT22;1985;48.592;8.850;2023-09-18T04:55:13;19.50;99.90
3942;DHT22;1985;48.592;8.850;2023-09-18T04:57:39;19.60;99.90
3942;DHT22;1985;48.592;8.850;2023-09-18T05:00:05;19.70;99.90
3942;DHT22;1985;48.592;8.850;2023-09-18T05:02:34;19.70;99.90
3942;DHT22;1985;48.592;8.850;2023-09-18T05:05:00;19.70;99.90
3942;DHT22;1985;48.592;8.850;2023-09-18T05:07:26;19.80;99.90
3942;DHT22;1985;48.592;8.850;2023-09-18T05:09:52;19.70;99.90
3942;DHT22;1985;48.592;8.850;2023-09-18T05:12:18;19.60;99.90
3942;DHT22;1985;48.592;8.850;2023-09-18T05:14:44;19.40;99.90
3942;DHT22;1985;48.592;8.850;2023-09-18T05:17:15;19.50;99.90
3942;DHT22;1985;48.592;8.850;2023-09-18T05:19:40;19.50;99.90
3942;DHT22;1985;48.592;8.850;2023-09-18T05:22:07;19.50;99.90
3942;DHT22;1985;48.592;8.850;2023-09-18T05:24:33;19.50;99.90
3942;DHT22;1985;48.592;8.850;2023-09-18T05:26:58;19.40;99.90
3942;DHT22;1985;48.592;8.850;2023-09-18T05:29:24;19.40;99.90
3942;DHT22;1985;48.592;8.850;2023-09-18T05:31:50;19.40;99.90
3942;DHT22;1985;48.592;8.850;2023-09-18T05:34:15;19.50;99.90
3942;DHT22;1985;48.592;8.850;2023-09-18T05:36:41;19.60;99.90
3942;DHT22;1985;48.592;8.850;2023-09-18T05:39:06;19.60;99.90
3942;DHT22;1985;48.592;8.850;2023-09-18T05:41:41;19.50;99.90
3942;DHT22;1985;48.592;8.850;2023-09-18T05:44:07;19.40;99.90
3942;DHT22;1985;48.592;8.850;2023-09-18T05:46:35;19.30;99.90
3942;DHT22;1985;48.592;8.850;2023-09-18T05:49:02;19.20;99.90
3942;DHT22;1985;48.592;8.850;2023-09-18T05:51:27;19.30;99.90
3942;DHT22;1985;48.592;8.850;2023-09-18T05:53:53;19.30;99.90
3942;DHT22;1985;48.592;8.850;2023-09-18T05:56:19;19.20;99.90
3942;DHT22;1985;48.592;8.850;2023-09-18T05:58:44;19.20;99.90
3942;DHT22;1985;48.592;8.850;2023-09-18T06:01:10;19.00;99.90
3942;DHT22;1985;48.592;8.850;2023-09-18T06:03:36;19.00;99.90
3942;DHT22;1985;48.592;8.850;2023-09-18T06:06:02;19.00;99.90
3942;DHT22;1985;48.592;8.850;2023-09-18T06:08:29;19.00;99.90
3942;DHT22;1985;48.592;8.850;2023-09-18T06:10:56;19.00;99.90
3942;DHT22;1985;48.592;8.850;2023-09-18T06:13:23;19.10;99.90
3942;DHT22;1985;48.592;8.850;2023-09-18T06:15:50;18.80;99.90
3942;DHT22;1985;48.592;8.850;2023-09-18T06:18:18;18.70;99.90
3942;DHT22;1985;48.592;8.850;2023-09-18T06:20:46;18.50;99.90
3942;DHT22;1985;48.592;8.850;2023-09-18T06:23:12;18.40;99.90
3942;DHT22;1985;48.592;8.850;2023-09-18T06:25:38;18.60;99.90
3942;DHT22;1985;48.592;8.850;2023-09-18T06:28:04;18.60;99.90
3942;DHT22;1985;48.592;8.850;2023-09-18T06:30:30;18.80;99.90
3942;DHT22;1985;48.592;8.850;2023-09-18T06:32:56;18.90;99.90
3942;DHT22;1985;48.592;8.850;2023-09-18T06:35:22;18.90;99.90
3942;DHT22;1985;48.592;8.850;2023-09-18T06:37:47;18.80;99.90
3942;DHT22;1985;48.592;8.850;2023-09-18T06:40:13;18.70;99.90
3942;DHT22;1985;48.592;8.850;2023-09-18T06:42:39;18.80;99.90
3942;DHT22;1985;48.592;8.850;2023-09-18T06:45:05;18.80;99.90
3942;DHT22;1985;48.592;8.850;2023-09-18T06:47:33;18.80;99.90
3942;DHT22;1985;48.592;8.850;2023-09-18T06:49:58;18.80;99.90
3942;DHT22;1985;48.592;8.850;2023-09-18T06:52:25;18.80;99.90
3942;DHT22;1985;48.592;8.850;2023-09-18T06:54:52;18.60;99.90
3942;DHT22;1985;48.592;8.850;2023-09-18T06:57:18;18.50;99.90
3942;DHT22;1985;48.592;8.850;2023-09-18T06:59:46;18.70;99.90
3942;DHT22;1985;48.592;8.850;2023-09-18T07:02:12;18.80;99.90
3942;DHT22;1985;48.592;8.850;2023-09-18T07:04:40;18.80;99.90
3942;DHT22;1985;48.592;8.850;2023-09-18T07:07:11;18.90;99.90
3942;DHT22;1985;48.592;8.850;2023-09-18T07:09:37;18.90;99.90
3942;DHT22;1985;48.592;8.850;2023-09-18T07:12:03;19.00;99.90
3942;DHT22;1985;48.592;8.850;2023-09-18T07:14:29;19.00;99.90
3942;DHT22;1985;48.592;8.850;2023-09-18T07:16:55;18.70;99.90
3942;DHT22;1985;48.592;8.850;2023-09-18T07:19:20;18.50;99.90
3942;DHT22;1985;48.592;8.850;2023-09-18T07:21:46;18.50;99.90
3942;DHT22;1985;48.592;8.850;2023-09-18T07:24:11;18.30;99.90
3942;DHT22;1985;48.592;8.850;2023-09-18T07:26:45;18.10;99.90
3942;DHT22;1985;48.592;8.850;2023-09-18T07:29:12;18.00;99.90
3942;DHT22;1985;48.592;8.850;2023-09-18T07:31:38;18.10;99.90
3942;DHT22;1985;48.592;8.850;2023-09-18T07:34:05;18.00;99.90
3942;DHT22;1985;48.592;8.850;2023-09-18T07:36:31;18.00;99.90
3942;DHT22;1985;48.592;8.850;2023-09-18T07:38:57;18.10;99.90
3942;DHT22;1985;48.592;8.850;2023-09-18T07:41:23;18.10;99.90
3942;DHT22;1985;48.592;8.850;2023-09-18T07:43:48;18.20;99.90
3942;DHT22;1985;48.592;8.850;2023-09-18T07:46:14;18.30;99.90
3942;DHT22;1985;48.592;8.850;2023-09-18T07:48:40;18.30;99.90
3942;DHT22;1985;48.592;8.850;2023-09-18T07:51:05;18.20;99.90
3942;DHT22;1985;48.592;8.850;2023-09-18T07:53:31;18.20;99.90
3942;DHT22;1985;48.592;8.850;2023-09-18T07:55:57;18.20;99.90
3942;DHT22;1985;48.592;8.850;2023-09-18T07:58:25;18.20;99.90
3942;DHT22;1985;48.592;8.850;2023-09-18T08:00:56;18.20;99.90
3942;DHT22;1985;48.592;8.850;2023-09-18T08:03:25;18.20;99.90
3942;DHT22;1985;48.592;8.850;2023-09-18T08:05:54;18.30;99.90
3942;DHT22;1985;48.592;8.850;2023-09-18T08:08:21;18.30;99.90
3942;DHT22;1985;48.592;8.850;2023-09-18T08:10:47;18.20;99.90
3942;DHT22;1985;48.592;8.850;2023-09-18T08:13:13;18.20;99.90
3942;DHT22;1985;48.592;8.850;2023-09-18T08:15:39;18.20;99.90
3942;DHT22;1985;48.592;8.850;2023-09-18T08:18:04;18.00;99.90
3942;DHT22;1985;48.592;8.850;2023-09-18T08:20:30;17.80;99.90
3942;DHT22;1985;48.592;8.850;2023-09-18T08:22:56;17.70;99.90
3942;DHT22;1985;48.592;8.850;2023-09-18T08:25:22;17.70;99.90
3942;DHT22;1985;48.592;8.850;2023-09-18T08:27:47;17.70;99.90
3942;DHT22;1985;48.592;8.850;2023-09-18T08:30:14;17.60;99.90
3942;DHT22;1985;48.592;8.850;2023-09-18T08:32:41;17.60;99.90
3942;DHT22;1985;48.592;8.850;2023-09-18T08:35:08;17.70;99.90
3942;DHT22;1985;48.592;8.850;2023-09-18T08:37:33;17.80;99.90
3942;DHT22;1985;48.592;8.850;2023-09-18T08:39:59;18.00;99.90
3942;DHT22;1985;48.592;8.850;2023-09-18T08:42:36;18.00;99.90
3942;DHT22;1985;48.592;8.850;2023-09-18T08:45:07;18.00;99.90
3942;DHT22;1985;48.592;8.850;2023-09-18T08:47:35;17.90;99.90
3942;DHT22;1985;48.592;8.850;2023-09-18T08:50:01;17.80;99.90
3942;DHT22;1985;48.592;8.850;2023-09-18T08:52:27;17.70;99.90
3942;DHT22;1985;48.592;8.850;2023-09-18T08:54:54;17.60;99.90
3942;DHT22;1985;48.592;8.850;2023-09-18T08:57:21;17.60;99.90
3942;DHT22;1985;48.592;8.850;2023-09-18T08:59:48;17.70;99.90
3942;DHT22;1985;48.592;8.850;2023-09-18T09:02:15;17.70;99.90
3942;DHT22;1985;48.592;8.850;2023-09-18T09:04:41;17.70;99.90
3942;DHT22;1985;48.592;8.850;2023-09-18T09:07:07;17.70;99.90
3942;DHT22;1985;48.592;8.850;2023-09-18T09:09:34;17.80;99.90
3942;DHT22;1985;48.592;8.850;2023-09-18T09:12:00;17.80;99.90
3942;DHT22;1985;48.592;8.850;2023-09-18T09:14:26;17.90;99.90
3942;DHT22;1985;48.592;8.850;2023-09-18T09:16:55;17.90;99.90
3942;DHT22;1985;48.592;8.850;2023-09-18T09:19:34;18.10;99.90
3942;DHT22;1985;48.592;8.850;2023-09-18T09:22:04;18.20;99.90
3942;DHT22;1985;48.592;8.850;2023-09-18T09:24:41;18.30;99.90
3942;DHT22;1985;48.592;8.850;2023-09-18T09:27:08;18.50;99.90
3942;DHT22;1985;48.592;8.850;2023-09-18T09:29:34;18.60;99.90
3942;DHT22;1985;48.592;8.850;2023-09-18T09:32:16;18.40;99.90
3942;DHT22;1985;48.592;8.850;2023-09-18T09:34:44;18.50;99.90
3942;DHT22;1985;48.592;8.850;2023-09-18T09:37:10;18.40;99.90
3942;DHT22;1985;48.592;8.850;2023-09-18T09:39:47;18.50;99.90
3942;DHT22;1985;48.592;8.850;2023-09-18T09:42:18;18.50;99.90
3942;DHT22;1985;48.592;8.850;2023-09-18T09:45:00;18.50;99.90
3942;DHT22;1985;48.592;8.850;2023-09-18T09:47:27;18.60;99.90
3942;DHT22;1985;48.592;8.850;2023-09-18T09:49:52;18.50;99.90
3942;DHT22;1985;48.592;8.850;2023-09-18T09:52:19;18.60;99.90
3942;DHT22;1985;48.592;8.850;2023-09-18T09:54:48;18.60;99.90
3942;DHT22;1985;48.592;8.850;2023-09-18T09:57:14;18.60;99.90
3942;DHT22;1985;48.592;8.850;2023-09-18T09:59:39;18.60;99.90
3942;DHT22;1985;48.592;8.850;2023-09-18T10:02:10;18.50;99.90
3942;DHT22;1985;48.592;8.850;2023-09-18T10:04:37;18.40;99.90
3942;DHT22;1985;48.592;8.850;2023-09-18T10:07:07;18.30;99.90
3942;DHT22;1985;48.592;8.850;2023-09-18T10:09:39;18.20;99.90
3942;DHT22;1985;48.592;8.850;2023-09-18T10:12:10;18.00;99.90
3942;DHT22;1985;48.592;8.850;2023-09-18T10:14:36;18.00;99.90
3942;DHT22;1985;48.592;8.850;2023-09-18T10:17:21;18.00;99.90
3942;DHT22;1985;48.592;8.850;2023-09-18T10:22:45;18.00;99.90
3942;DHT22;1985;48.592;8.850;2023-09-18T10:25:21;17.90;99.90
3942;DHT22;1985;48.592;8.850;2023-09-18T10:27:49;17.90;99.90
3942;DHT22;1985;48.592;8.850;2023-09-18T10:30:15;18.00;99.90
3942;DHT22;1985;48.592;8.850;2023-09-18T10:32:44;18.10;99.90
3942;DHT22;1985;48.592;8.850;2023-09-18T10:35:14;17.90;99.90
3942;DHT22;1985;48.592;8.850;2023-09-18T10:37:42;18.00;99.90
3942;DHT22;1985;48.592;8.850;2023-09-18T10:40:09;18.00;99.90
3942;DHT22;1985;48.592;8.850;2023-09-18T10:42:39;18.00;99.90
3942;DHT22;1985;48.592;8.850;2023-09-18T10:45:07;18.00;99.90
3942;DHT22;1985;48.592;8.850;2023-09-18T10:47:38;18.00;99.90
3942;DHT22;1985;48.592;8.850;2023-09-18T10:50:06;18.10;99.90
3942;DHT22;1985;48.592;8.850;2023-09-18T10:52:36;18.20;99.90
3942;DHT22;1985;48.592;8.850;2023-09-18T10:55:03;18.20;99.90
3942;DHT22;1985;48.592;8.850;2023-09-18T10:57:33;18.30;99.90
3942;DHT22;1985;48.592;8.850;2023-09-18T11:00:00;18.30;99.90
3942;DHT22;1985;48.592;8.850;2023-09-18T11:02:27;18.40;99.90
3942;DHT22;1985;48.592;8.850;2023-09-18T11:04:54;18.50;99.90
3942;DHT22;1985;48.592;8.850;2023-09-18T11:07:23;18.70;99.90
3942;DHT22;1985;48.592;8.850;2023-09-18T11:09:50;18.80;99.90
3942;DHT22;1985;48.592;8.850;2023-09-18T11:12:17;18.70;99.90
3942;DHT22;1985;48.592;8.850;2023-09-18T11:22:48;18.30;99.90
3942;DHT22;1985;48.592;8.850;2023-09-18T11:25:42;18.30;99.90
3942;DHT22;1985;48.592;8.850;2023-09-18T11:28:24;18.40;99.90
3942;DHT22;1985;48.592;8.850;2023-09-18T11:30:54;18.40;99.90
3942;DHT22;1985;48.592;8.850;2023-09-18T11:33:35;18.50;99.90
3942;DHT22;1985;48.592;8.850;2023-09-18T11:36:09;18.50;99.90
3942;DHT22;1985;48.592;8.850;2023-09-18T11:38:57;18.60;99.90
3942;DHT22;1985;48.592;8.850;2023-09-18T11:41:42;18.60;99.90
3942;DHT22;1985;48.592;8.850;2023-09-18T11:46:40;18.70;99.90
3942;DHT22;1985;48.592;8.850;2023-09-18T11:49:07;18.80;99.90
3942;DHT22;1985;48.592;8.850;2023-09-18T11:51:35;18.70;99.90
3942;DHT22;1985;48.592;8.850;2023-09-18T11:54:02;18.80;99.90
3942;DHT22;1985;48.592;8.850;2023-09-18T11:56:29;18.90;99.90
3942;DHT22;1985;48.592;8.850;2023-09-18T11:58:55;19.00;99.90
3942;DHT22;1985;48.592;8.850;2023-09-18T12:01:21;19.10;99.90
3942;DHT22;1985;48.592;8.850;2023-09-18T12:03:53;19.10;99.90
3942;DHT22;1985;48.592;8.850;2023-09-18T12:06:19;19.00;99.90
3942;DHT22;1985;48.592;8.850;2023-09-18T12:08:45;19.00;99.90
3942;DHT22;1985;48.592;8.850;2023-09-18T12:11:12;19.00;99.90
3942;DHT22;1985;48.592;8.850;2023-09-18T12:13:42;19.10;99.90
3942;DHT22;1985;48.592;8.850;2023-09-18T12:16:08;19.10;99.90
3942;DHT22;1985;48.592;8.850;2023-09-18T12:18:35;19.20;99.90
3942;DHT22;1985;48.592;8.850;2023-09-18T12:21:06;19.50;99.90
3942;DHT22;1985;48.592;8.850;2023-09-18T12:23:38;19.60;99.90
3942;DHT22;1985;48.592;8.850;2023-09-18T12:26:04;19.80;99.90
3942;DHT22;1985;48.592;8.850;2023-09-18T12:28:34;19.90;99.90
3942;DHT22;1985;48.592;8.850;2023-09-18T12:31:00;19.90;99.90
3942;DHT22;1985;48.592;8.850;2023-09-18T12:33:38;20.00;99.90
3942;DHT22;1985;48.592;8.850;2023-09-18T12:36:05;19.90;99.90
3942;DHT22;1985;48.592;8.850;2023-09-18T12:38:32;20.00;99.90
3942;DHT22;1985;48.592;8.850;2023-09-18T12:40:59;20.00;99.90
3942;DHT22;1985;48.592;8.850;2023-09-18T12:43:41;19.90;99.90
3942;DHT22;1985;48.592;8.850;2023-09-18T12:46:09;19.80;99.90
3942;DHT22;1985;48.592;8.850;2023-09-18T12:48:39;20.00;99.90
3942;DHT22;1985;48.592;8.850;2023-09-18T12:51:10;19.90;99.90
3942;DHT22;1985;48.592;8.850;2023-09-18T12:53:37;20.00;99.90
3942;DHT22;1985;48.592;8.850;2023-09-18T12:56:11;20.20;99.90
3942;DHT22;1985;48.592;8.850;2023-09-18T12:58:38;20.20;99.90
3942;DHT22;1985;48.592;8.850;2023-09-18T13:01:08;20.20;99.90
3942;DHT22;1985;48.592;8.850;2023-09-18T13:03:45;20.30;99.90
3942;DHT22;1985;48.592;8.850;2023-09-18T13:06:20;20.20;99.90
3942;DHT22;1985;48.592;8.850;2023-09-18T13:08:47;20.20;99.90
3942;DHT22;1985;48.592;8.850;2023-09-18T13:11:13;20.30;99.90
3942;DHT22;1985;48.592;8.850;2023-09-18T13:13:42;20.50;99.90
3942;DHT22;1985;48.592;8.850;2023-09-18T13:16:09;20.70;99.90
3942;DHT22;1985;48.592;8.850;2023-09-18T13:18:35;20.90;99.90
3942;DHT22;1985;48.592;8.850;2023-09-18T13:21:12;21.10;99.90
3942;DHT22;1985;48.592;8.850;2023-09-18T13:23:39;21.20;99.90
3942;DHT22;1985;48.592;8.850;2023-09-18T13:26:06;21.30;99.90
3942;DHT22;1985;48.592;8.850;2023-09-18T13:28:36;21.30;99.90
3942;DHT22;1985;48.592;8.850;2023-09-18T13:31:03;21.20;99.90
3942;DHT22;1985;48.592;8.850;2023-09-18T13:33:30;21.10;99.90
3942;DHT22;1985;48.592;8.850;2023-09-18T13:35:58;21.00;99.90
3942;DHT22;1985;48.592;8.850;2023-09-18T13:38:24;21.00;99.90
3942;DHT22;1985;48.592;8.850;2023-09-18T13:40:52;21.20;99.90
3942;DHT22;1985;48.592;8.850;2023-09-18T13:43:19;21.20;99.90
3942;DHT22;1985;48.592;8.850;2023-09-18T13:45:47;21.10;99.90
3942;DHT22;1985;48.592;8.850;2023-09-18T13:48:13;20.90;99.90
3942;DHT22;1985;48.592;8.850;2023-09-18T13:50:40;20.80;99.90
3942;DHT22;1985;48.592;8.850;2023-09-18T13:53:06;20.70;99.90
3942;DHT22;1985;48.592;8.850;2023-09-18T13:55:33;20.60;99.90
3942;DHT22;1985;48.592;8.850;2023-09-18T13:57:59;20.70;99.90
3942;DHT22;1985;48.592;8.850;2023-09-18T14:00:25;20.80;99.90
3942;DHT22;1985;48.592;8.850;2023-09-18T14:02:51;20.80;99.90
3942;DHT22;1985;48.592;8.850;2023-09-18T14:05:17;20.90;99.90
3942;DHT22;1985;48.592;8.850;2023-09-18T14:07:43;21.00;99.90
3942;DHT22;1985;48.592;8.850;2023-09-18T14:10:10;20.90;99.90
3942;DHT22;1985;48.592;8.850;2023-09-18T14:12:39;20.90;99.90
3942;DHT22;1985;48.592;8.850;2023-09-18T14:15:06;20.90;99.90
3942;DHT22;1985;48.592;8.850;2023-09-18T14:17:32;20.70;99.90
3942;DHT22;1985;48.592;8.850;2023-09-18T14:19:58;20.60;99.90
3942;DHT22;1985;48.592;8.850;2023-09-18T14:22:24;20.60;99.90
3942;DHT22;1985;48.592;8.850;2023-09-18T14:24:50;20.70;99.90
3942;DHT22;1985;48.592;8.850;2023-09-18T14:27:15;20.60;99.90
3942;DHT22;1985;48.592;8.850;2023-09-18T14:29:41;20.80;99.90
3942;DHT22;1985;48.592;8.850;2023-09-18T14:32:07;20.80;99.90
3942;DHT22;1985;48.592;8.850;2023-09-18T14:34:34;20.90;99.90
3942;DHT22;1985;48.592;8.850;2023-09-18T14:37:01;20.80;99.90
3942;DHT22;1985;48.592;8.850;2023-09-18T14:39:30;20.90;99.90
3942;DHT22;1985;48.592;8.850;2023-09-18T14:41:56;21.10;99.90
3942;DHT22;1985;48.592;8.850;2023-09-18T14:44:21;21.10;99.90
3942;DHT22;1985;48.592;8.850;2023-09-18T14:46:47;21.10;99.90
3942;DHT22;1985;48.592;8.850;2023-09-18T14:49:12;21.20;99.90
3942;DHT22;1985;48.592;8.850;2023-09-18T14:51:38;21.10;99.90
3942;DHT22;1985;48.592;8.850;2023-09-18T14:54:04;21.00;99.90
3942;DHT22;1985;48.592;8.850;2023-09-18T14:56:30;20.90;99.90
3942;DHT22;1985;48.592;8.850;2023-09-18T14:58:56;20.70;99.90
3942;DHT22;1985;48.592;8.850;2023-09-18T15:01:23;20.80;99.90
3942;DHT22;1985;48.592;8.850;2023-09-18T15:03:49;20.60;99.90
3942;DHT22;1985;48.592;8.850;2023-09-18T15:06:15;20.60;99.90
3942;DHT22;1985;48.592;8.850;2023-09-18T15:08:41;20.50;99.90
3942;DHT22;1985;48.592;8.850;2023-09-18T15:11:07;20.60;99.90
3942;DHT22;1985;48.592;8.850;2023-09-18T15:13:33;20.70;99.90
3942;DHT22;1985;48.592;8.850;2023-09-18T15:16:03;20.70;99.90
3942;DHT22;1985;48.592;8.850;2023-09-18T15:18:28;20.90;99.90
3942;DHT22;1985;48.592;8.850;2023-09-18T15:20:54;20.90;99.90
3942;DHT22;1985;48.592;8.850;2023-09-18T15:23:26;21.20;99.90
3942;DHT22;1985;48.592;8.850;2023-09-18T15:25:52;21.20;99.90
3942;DHT22;1985;48.592;8.850;2023-09-18T15:28:24;21.30;99.90
3942;DHT22;1985;48.592;8.850;2023-09-18T15:30:53;21.30;99.90
3942;DHT22;1985;48.592;8.850;2023-09-18T15:33:19;21.30;99.90
3942;DHT22;1985;48.592;8.850;2023-09-18T15:35:56;21.30;99.90
3942;DHT22;1985;48.592;8.850;2023-09-18T15:38:22;21.10;99.90
3942;DHT22;1985;48.592;8.850;2023-09-18T15:40:47;21.00;99.90
3942;DHT22;1985;48.592;8.850;2023-09-18T15:43:14;20.90;99.90
3942;DHT22;1985;48.592;8.850;2023-09-18T15:45:40;20.90;99.90
3942;DHT22;1985;48.592;8.850;2023-09-18T15:48:05;20.90;99.90
3942;DHT22;1985;48.592;8.850;2023-09-18T15:50:32;20.80;99.90
3942;DHT22;1985;48.592;8.850;2023-09-18T15:52:57;20.70;99.90
3942;DHT22;1985;48.592;8.850;2023-09-18T15:55:23;20.70;99.90
3942;DHT22;1985;48.592;8.850;2023-09-18T15:57:49;20.50;99.90
3942;DHT22;1985;48.592;8.850;2023-09-18T16:00:16;20.40;99.90
3942;DHT22;1985;48.592;8.850;2023-09-18T16:02:43;20.50;99.90
3942;DHT22;1985;48.592;8.850;2023-09-18T16:05:09;20.60;99.90
3942;DHT22;1985;48.592;8.850;2023-09-18T16:07:35;20.60;99.90
3942;DHT22;1985;48.592;8.850;2023-09-18T16:10:05;20.70;99.90
3942;DHT22;1985;48.592;8.850;2023-09-18T16:12:31;20.80;99.90
3942;DHT22;1985;48.592;8.850;2023-09-18T16:14:59;20.70;99.90
3942;DHT22;1985;48.592;8.850;2023-09-18T16:17:25;20.70;99.90
3942;DHT22;1985;48.592;8.850;2023-09-18T16:19:51;20.70;99.90
3942;DHT22;1985;48.592;8.850;2023-09-18T16:22:17;20.70;99.90